createdAt,value
2019-06-15T00:02:18.862Z,23.48
2019-06-15T00:07:22.974Z,23.47
2019-06-15T00:12:27.383Z,23.45
2019-06-15T00:17:31.456Z,23.52
2019-06-15T00:22:35.526Z,23.63
2019-06-15T00:27:39.892Z,23.63
2019-06-15T00:32:44.026Z,23.59
2019-06-15T00:37:48.090Z,23.58
2019-06-15T00:42:54.125Z,23.47
2019-06-15T00:48:00.654Z,23.43
2019-06-15T00:53:05.522Z,23.29
2019-06-15T00:58:10.631Z,23.15
2019-06-15T01:03:15.487Z,23.07
2019-06-15T01:08:19.710Z,22.98
2019-06-15T01:13:24.443Z,23.06
2019-06-15T01:18:30.688Z,23.03
2019-06-15T01:23:34.855Z,23.14
2019-06-15T01:28:39.427Z,23.15
2019-06-15T01:33:43.593Z,23.14
2019-06-15T01:38:47.638Z,23.06
2019-06-15T01:43:51.707Z,23.08
2019-06-15T01:48:55.783Z,23.11
2019-06-15T01:54:00.750Z,23.09
2019-06-15T01:59:04.946Z,23.11
2019-06-15T02:04:10.060Z,23.26
2019-06-15T02:09:14.209Z,23.16
2019-06-15T02:14:18.250Z,23.16
2019-06-15T02:19:22.246Z,23.12
2019-06-15T02:24:26.625Z,23.18
2019-06-15T02:29:30.958Z,23.15
2019-06-15T02:34:34.961Z,23.10
2019-06-15T02:39:39.346Z,23.19
2019-06-15T02:44:43.763Z,23.29
2019-06-15T02:49:48.139Z,23.26
2019-06-15T02:54:52.426Z,23.19
2019-06-15T02:59:56.558Z,23.17
2019-06-15T03:05:00.617Z,23.16
2019-06-15T03:10:04.913Z,23.01
2019-06-15T03:15:10.612Z,22.93
2019-06-15T03:20:15.663Z,22.98
2019-06-15T03:25:19.874Z,22.93
2019-06-15T03:30:24.286Z,22.88
2019-06-15T03:35:29.455Z,22.73
2019-06-15T03:40:33.482Z,22.56
2019-06-15T03:45:37.603Z,22.42
2019-06-15T03:50:41.722Z,22.37
2019-06-15T03:55:46.066Z,22.42
2019-06-15T04:01:19.465Z,22.54
2019-06-15T04:06:23.494Z,22.71
2019-06-15T04:11:29.645Z,22.96
2019-06-15T04:16:50.082Z,23.05
2019-06-15T04:21:56.881Z,23.10
2019-06-15T04:27:01.003Z,23.20
2019-06-15T04:32:05.046Z,23.38
2019-06-15T04:37:09.176Z,23.70
2019-06-15T04:42:13.264Z,23.89
2019-06-15T04:47:17.569Z,24.24
2019-06-15T04:52:24.502Z,24.20
2019-06-15T04:57:28.612Z,24.00
2019-06-15T05:02:32.720Z,24.14
2019-06-15T05:07:36.847Z,25.86
2019-06-15T05:12:41.128Z,27.02
2019-06-15T05:17:46.384Z,28.15
2019-06-15T05:22:50.694Z,28.45
2019-06-15T05:27:54.772Z,28.88
2019-06-15T05:32:58.788Z,29.65
2019-06-15T05:38:02.905Z,28.29
2019-06-15T05:43:06.937Z,27.34
2019-06-15T05:48:11.055Z,26.21
2019-06-15T05:53:15.142Z,25.73
2019-06-15T05:58:19.333Z,26.25
2019-06-15T06:03:23.566Z,28.34
2019-06-15T06:08:27.680Z,28.42
2019-06-15T06:13:31.761Z,30.75
2019-06-15T06:18:36.061Z,29.80
2019-06-15T06:23:40.086Z,28.36
2019-06-15T06:28:56.518Z,26.66
2019-06-15T06:33:50.117Z,27.04
2019-06-15T06:38:54.150Z,31.24
2019-06-15T06:43:58.178Z,30.65
2019-06-15T06:49:02.263Z,31.54
2019-06-15T06:54:06.738Z,30.12
2019-06-15T06:59:10.759Z,29.23
2019-06-15T07:04:14.808Z,27.99
2019-06-15T07:09:18.903Z,30.02
2019-06-15T07:14:23.101Z,29.44
2019-06-15T07:19:27.194Z,28.41
2019-06-15T07:24:31.228Z,27.91
2019-06-15T07:29:35.303Z,27.48
2019-06-15T07:34:39.414Z,27.52
2019-06-15T07:39:43.824Z,27.99
2019-06-15T07:44:47.848Z,31.11
2019-06-15T07:49:51.927Z,34.00
2019-06-15T07:54:55.962Z,33.82
2019-06-15T08:00:00.074Z,35.27
2019-06-15T08:05:09.843Z,36.40
2019-06-15T08:10:14.769Z,35.25
2019-06-15T08:15:19.141Z,34.46
2019-06-15T08:20:27.829Z,35.13
2019-06-15T08:25:31.966Z,35.58
2019-06-15T08:30:42.781Z,35.28
2019-06-15T08:35:46.890Z,35.06
2019-06-15T08:40:51.082Z,35.80
2019-06-15T08:45:55.532Z,35.66
2019-06-15T08:50:59.848Z,35.49
2019-06-15T08:56:09.586Z,35.73
2019-06-15T09:01:13.620Z,36.91
2019-06-15T09:06:17.972Z,36.21
2019-06-15T09:11:22.117Z,35.34
2019-06-15T09:16:26.117Z,36.39
2019-06-15T09:21:30.227Z,35.47
2019-06-15T09:26:34.337Z,37.25
2019-06-15T09:31:38.413Z,35.68
2019-06-15T09:36:42.967Z,33.79
2019-06-15T09:41:47.005Z,32.42
2019-06-15T09:46:51.706Z,32.42
2019-06-15T09:51:55.851Z,33.73
2019-06-15T09:56:59.906Z,34.50
2019-06-15T10:02:10.890Z,34.50
2019-06-15T10:07:14.991Z,35.24
2019-06-15T10:12:19.307Z,34.81
2019-06-15T10:17:23.363Z,33.32
2019-06-15T10:22:27.402Z,32.49
2019-06-15T10:27:31.524Z,32.17
2019-06-15T10:32:35.651Z,32.17
2019-06-15T10:37:39.806Z,32.79
2019-06-15T10:42:43.872Z,33.22
2019-06-15T10:47:47.913Z,33.46
2019-06-15T10:52:51.990Z,33.81
2019-06-15T10:57:56.076Z,33.49
2019-06-15T11:03:03.627Z,33.49
2019-06-15T11:08:10.564Z,33.49
2019-06-15T11:13:14.820Z,35.05
2019-06-15T11:18:19.120Z,35.50
2019-06-15T11:23:23.478Z,36.29
2019-06-15T11:28:27.608Z,35.84
2019-06-15T11:33:31.696Z,35.75
2019-06-15T11:38:35.740Z,36.46
2019-06-15T11:43:39.739Z,35.69
2019-06-15T11:48:43.845Z,34.51
2019-06-15T11:53:47.947Z,33.82
2019-06-15T11:58:52.004Z,33.52
2019-06-15T12:03:56.791Z,33.86
2019-06-15T12:09:00.924Z,33.35
2019-06-15T12:14:05.156Z,33.78
2019-06-15T12:19:09.447Z,33.72
2019-06-15T12:24:13.549Z,33.80
2019-06-15T12:29:17.920Z,33.98
2019-06-15T12:34:22.048Z,34.18
2019-06-15T12:39:26.142Z,34.05
2019-06-15T12:44:30.193Z,33.91
2019-06-15T12:49:34.195Z,33.75
2019-06-15T12:54:38.683Z,34.12
2019-06-15T12:59:42.804Z,34.12
2019-06-15T13:04:46.913Z,33.81
2019-06-15T13:09:50.938Z,34.04
2019-06-15T13:14:55.007Z,34.12
2019-06-15T13:19:59.114Z,34.41
2019-06-15T13:25:03.490Z,34.13
2019-06-15T13:30:09.998Z,33.75
2019-06-15T13:35:14.214Z,33.84
2019-06-15T13:40:18.606Z,34.40
2019-06-15T13:45:23.712Z,34.31
2019-06-15T13:50:27.837Z,33.89
2019-06-15T13:55:32.425Z,34.26
2019-06-15T14:00:36.511Z,33.99
2019-06-15T14:05:40.603Z,33.98
2019-06-15T14:10:44.732Z,33.66
2019-06-15T14:15:48.902Z,33.75
2019-06-15T14:20:52.955Z,33.62
2019-06-15T14:25:57.066Z,33.57
2019-06-15T14:31:02.390Z,33.45
2019-06-15T14:36:06.996Z,33.32
2019-06-15T14:41:11.246Z,32.50
2019-06-15T14:46:15.303Z,33.26
2019-06-15T14:51:19.450Z,33.74
2019-06-15T14:56:23.580Z,33.91
2019-06-15T15:01:27.705Z,32.20
2019-06-15T15:06:31.979Z,31.98
2019-06-15T15:11:36.789Z,31.04
2019-06-15T15:16:41.156Z,30.53
2019-06-15T15:21:46.144Z,30.43
2019-06-15T15:26:50.453Z,29.68
2019-06-15T15:31:57.394Z,30.28
2019-06-15T15:37:00.849Z,30.14
2019-06-15T15:42:06.591Z,29.46
2019-06-15T15:47:11.219Z,29.51
2019-06-15T15:52:17.088Z,29.21
2019-06-15T15:57:21.486Z,29.62
2019-06-15T16:02:35.531Z,29.87
2019-06-15T16:07:31.413Z,30.20
2019-06-15T16:12:36.139Z,29.42
2019-06-15T16:17:40.349Z,29.81
2019-06-15T16:22:45.927Z,29.40
2019-06-15T16:27:50.225Z,29.23
2019-06-15T16:33:03.129Z,29.26
2019-06-15T16:38:00.237Z,29.20
2019-06-15T16:43:06.931Z,29.02
2019-06-15T16:48:10.377Z,28.79
2019-06-15T16:53:16.890Z,28.63
2019-06-15T16:58:21.032Z,28.07
2019-06-15T17:03:29.018Z,28.18
2019-06-15T17:08:31.612Z,28.26
2019-06-15T17:13:37.152Z,27.88
2019-06-15T17:18:41.164Z,27.61
2019-06-15T17:23:46.752Z,27.34
2019-06-15T17:28:51.243Z,27.30
2019-06-15T17:33:56.350Z,27.07
2019-06-15T17:39:01.213Z,26.55
2019-06-15T17:44:06.118Z,26.40
2019-06-15T17:49:10.501Z,26.64
2019-06-15T17:54:16.868Z,26.65
2019-06-15T17:59:22.371Z,26.54
2019-06-15T18:04:26.571Z,26.08
2019-06-15T18:09:30.590Z,26.09
2019-06-15T18:14:36.780Z,25.97
2019-06-15T18:19:40.517Z,25.71
2019-06-15T18:24:46.691Z,25.39
2019-06-15T18:29:50.889Z,25.57
2019-06-15T18:34:56.096Z,25.35
2019-06-15T18:40:01.029Z,25.24
2019-06-15T18:45:06.852Z,24.79
2019-06-15T18:50:11.492Z,24.71
2019-06-15T18:55:15.516Z,24.47
2019-06-15T19:00:19.719Z,24.38
2019-06-15T19:05:26.365Z,24.16
2019-06-15T19:10:35.960Z,23.82
2019-06-15T19:15:40.177Z,23.72
2019-06-15T19:20:44.261Z,23.54
2019-06-15T19:25:48.698Z,23.28
2019-06-15T19:30:52.786Z,23.13
2019-06-15T19:35:57.439Z,22.96
2019-06-15T19:41:01.517Z,22.80
2019-06-15T19:46:06.730Z,22.66
2019-06-15T19:51:11.262Z,22.46
2019-06-15T19:56:17.407Z,22.33
2019-06-15T20:01:22.466Z,22.27
2019-06-15T20:06:27.358Z,22.24
2019-06-15T20:11:31.546Z,22.25
2019-06-15T20:16:36.204Z,22.02
2019-06-15T20:21:40.356Z,21.91
2019-06-15T20:26:44.403Z,21.89
2019-06-15T20:31:49.115Z,21.77
2019-06-15T20:36:54.929Z,21.78
2019-06-15T20:42:00.373Z,21.68
2019-06-15T20:47:06.563Z,21.61
2019-06-15T20:52:12.868Z,21.55
2019-06-15T20:57:18.071Z,21.43
2019-06-15T21:02:26.872Z,21.38
2019-06-15T21:07:31.501Z,21.24
2019-06-15T21:12:37.544Z,21.21
2019-06-15T21:17:41.682Z,21.07
2019-06-15T21:22:46.481Z,20.92
2019-06-15T21:27:51.041Z,20.78
2019-06-15T21:32:55.976Z,20.81
2019-06-15T21:38:00.199Z,20.64
2019-06-15T21:43:06.811Z,20.56
2019-06-15T21:48:10.109Z,20.45
2019-06-15T21:53:16.157Z,20.38
2019-06-15T21:58:19.907Z,20.23
2019-06-15T22:03:26.478Z,20.23
2019-06-15T22:08:33.294Z,20.06
2019-06-15T22:13:40.602Z,19.89
2019-06-15T22:18:47.517Z,19.77
2019-06-15T22:23:52.425Z,19.73
2019-06-15T22:28:57.187Z,19.60
2019-06-15T22:34:02.438Z,19.41
2019-06-15T22:39:07.191Z,19.35
2019-06-15T22:44:12.775Z,19.31
2019-06-15T22:49:17.103Z,19.17
2019-06-15T22:54:21.129Z,19.20
2019-06-15T22:59:26.039Z,19.04
2019-06-15T23:04:30.077Z,18.96
2019-06-15T23:09:36.069Z,18.81
2019-06-15T23:14:40.281Z,18.72
2019-06-15T23:19:46.121Z,18.65
2019-06-15T23:24:50.570Z,18.44
2019-06-15T23:29:56.878Z,18.32
2019-06-15T23:35:00.313Z,18.16
2019-06-15T23:40:07.434Z,18.06
2019-06-15T23:45:11.548Z,17.91
2019-06-15T23:50:16.947Z,17.85
2019-06-15T23:55:21.166Z,17.68
